sensor_id;sensor_type;location;lat;lon;timestamp;temperature;humidity
31677;DHT22;18385;51.572;6.578;2023-07-16T00:00:28;21.90;62.00
31677;DHT22;18385;51.572;6.578;2023-07-16T00:02:54;21.90;62.20
31677;DHT22;18385;51.572;6.578;2023-07-16T00:05:21;21.90;62.40
31677;DHT22;18385;51.572;6.578;2023-07-16T00:07:46;21.90;62.50
31677;DHT22;18385;51.572;6.578;2023-07-16T00:10:12;21.90;62.50
31677;DHT22;18385;51.572;6.578;2023-07-16T00:12:38;22.00;62.60
31677;DHT22;18385;51.572;6.578;2023-07-16T00:15:04;22.00;62.60
31677;DHT22;18385;51.572;6.578;2023-07-16T00:17:31;22.00;63.10
31677;DHT22;18385;51.572;6.578;2023-07-16T00:19:58;22.10;62.80
31677;DHT22;18385;51.572;6.578;2023-07-16T00:22:23;22.10;62.70
31677;DHT22;18385;51.572;6.578;2023-07-16T00:24:49;22.00;62.70
31677;DHT22;18385;51.572;6.578;2023-07-16T00:27:15;21.90;62.80
31677;DHT22;18385;51.572;6.578;2023-07-16T00:29:40;22.00;62.90
31677;DHT22;18385;51.572;6.578;2023-07-16T00:32:06;22.00;62.90
31677;DHT22;18385;51.572;6.578;2023-07-16T00:34:32;22.00;63.10
31677;DHT22;18385;51.572;6.578;2023-07-16T00:36:57;22.00;63.20
31677;DHT22;18385;51.572;6.578;2023-07-16T00:39:28;22.00;63.20
31677;DHT22;18385;51.572;6.578;2023-07-16T00:41:53;22.00;63.20
31677;DHT22;18385;51.572;6.578;2023-07-16T00:44:19;22.10;63.30
31677;DHT22;18385;51.572;6.578;2023-07-16T00:46:45;22.10;63.30
31677;DHT22;18385;51.572;6.578;2023-07-16T00:49:12;22.10;63.40
31677;DHT22;18385;51.572;6.578;2023-07-16T00:51:37;22.10;63.30
31677;DHT22;18385;51.572;6.578;2023-07-16T00:54:04;22.10;63.30
31677;DHT22;18385;51.572;6.578;2023-07-16T00:56:29;22.00;63.50
31677;DHT22;18385;51.572;6.578;2023-07-16T00:58:55;22.00;63.50
31677;DHT22;18385;51.572;6.578;2023-07-16T01:01:21;21.90;63.70
31677;DHT22;18385;51.572;6.578;2023-07-16T01:03:47;21.90;63.70
31677;DHT22;18385;51.572;6.578;2023-07-16T01:06:44;21.90;63.80
31677;DHT22;18385;51.572;6.578;2023-07-16T01:09:15;21.90;63.80
31677;DHT22;18385;51.572;6.578;2023-07-16T01:11:46;21.90;64.10
31677;DHT22;18385;51.572;6.578;2023-07-16T01:14:17;21.90;64.10
31677;DHT22;18385;51.572;6.578;2023-07-16T01:16:43;21.90;64.20
31677;DHT22;18385;51.572;6.578;2023-07-16T01:19:09;21.80;64.10
31677;DHT22;18385;51.572;6.578;2023-07-16T01:30:15;21.60;64.40
31677;DHT22;18385;51.572;6.578;2023-07-16T01:32:45;21.50;64.50
31677;DHT22;18385;51.572;6.578;2023-07-16T01:35:12;21.40;64.60
31677;DHT22;18385;51.572;6.578;2023-07-16T01:37:40;21.40;64.80
31677;DHT22;18385;51.572;6.578;2023-07-16T01:40:07;21.40;65.20
31677;DHT22;18385;51.572;6.578;2023-07-16T01:42:34;21.40;65.00
31677;DHT22;18385;51.572;6.578;2023-07-16T01:45:00;21.30;65.00
31677;DHT22;18385;51.572;6.578;2023-07-16T01:49:55;21.30;65.30
31677;DHT22;18385;51.572;6.578;2023-07-16T01:52:21;21.30;65.30
31677;DHT22;18385;51.572;6.578;2023-07-16T01:54:47;21.20;65.40
31677;DHT22;18385;51.572;6.578;2023-07-16T01:57:13;21.20;65.50
31677;DHT22;18385;51.572;6.578;2023-07-16T01:59:38;21.20;65.50
31677;DHT22;18385;51.572;6.578;2023-07-16T02:02:04;21.20;65.50
31677;DHT22;18385;51.572;6.578;2023-07-16T02:04:30;21.20;65.50
31677;DHT22;18385;51.572;6.578;2023-07-16T02:06:57;21.20;65.60
31677;DHT22;18385;51.572;6.578;2023-07-16T02:09:23;21.10;65.70
31677;DHT22;18385;51.572;6.578;2023-07-16T02:11:50;21.10;65.80
31677;DHT22;18385;51.572;6.578;2023-07-16T02:14:16;21.10;66.00
31677;DHT22;18385;51.572;6.578;2023-07-16T02:16:42;21.10;66.00
31677;DHT22;18385;51.572;6.578;2023-07-16T02:19:08;21.10;66.10
31677;DHT22;18385;51.572;6.578;2023-07-16T02:21:34;21.00;66.10
31677;DHT22;18385;51.572;6.578;2023-07-16T02:24:00;21.00;66.20
31677;DHT22;18385;51.572;6.578;2023-07-16T02:26:26;21.00;66.30
31677;DHT22;18385;51.572;6.578;2023-07-16T02:28:51;20.90;66.30
31677;DHT22;18385;51.572;6.578;2023-07-16T02:31:17;21.00;66.50
31677;DHT22;18385;51.572;6.578;2023-07-16T02:33:43;21.00;66.50
31677;DHT22;18385;51.572;6.578;2023-07-16T02:36:08;20.90;66.50
31677;DHT22;18385;51.572;6.578;2023-07-16T02:38:34;21.00;66.60
31677;DHT22;18385;51.572;6.578;2023-07-16T02:41:00;21.00;66.60
31677;DHT22;18385;51.572;6.578;2023-07-16T02:43:25;21.00;66.60
31677;DHT22;18385;51.572;6.578;2023-07-16T02:45:51;20.90;66.60
31677;DHT22;18385;51.572;6.578;2023-07-16T02:48:16;20.90;66.60
31677;DHT22;18385;51.572;6.578;2023-07-16T02:50:42;20.90;66.70
31677;DHT22;18385;51.572;6.578;2023-07-16T02:53:08;20.80;66.70
31677;DHT22;18385;51.572;6.578;2023-07-16T02:55:36;20.80;66.80
31677;DHT22;18385;51.572;6.578;2023-07-16T02:58:02;20.80;67.00
31677;DHT22;18385;51.572;6.578;2023-07-16T03:00:33;20.80;66.90
31677;DHT22;18385;51.572;6.578;2023-07-16T03:02:59;20.80;67.00
31677;DHT22;18385;51.572;6.578;2023-07-16T03:05:27;20.80;67.20
31677;DHT22;18385;51.572;6.578;2023-07-16T03:07:53;20.80;67.20
31677;DHT22;18385;51.572;6.578;2023-07-16T03:10:23;20.90;67.20
31677;DHT22;18385;51.572;6.578;2023-07-16T03:12:52;20.90;67.00
31677;DHT22;18385;51.572;6.578;2023-07-16T03:15:17;20.90;66.90
31677;DHT22;18385;51.572;6.578;2023-07-16T03:17:43;20.80;66.80
31677;DHT22;18385;51.572;6.578;2023-07-16T03:20:09;20.80;66.90
31677;DHT22;18385;51.572;6.578;2023-07-16T03:22:35;20.70;66.90
31677;DHT22;18385;51.572;6.578;2023-07-16T03:25:01;20.70;66.90
31677;DHT22;18385;51.572;6.578;2023-07-16T03:27:28;20.60;67.00
31677;DHT22;18385;51.572;6.578;2023-07-16T03:29:58;20.60;67.00
31677;DHT22;18385;51.572;6.578;2023-07-16T03:32:24;20.50;67.10
31677;DHT22;18385;51.572;6.578;2023-07-16T03:34:49;20.50;67.20
31677;DHT22;18385;51.572;6.578;2023-07-16T03:37:15;20.50;67.20
31677;DHT22;18385;51.572;6.578;2023-07-16T03:39:41;20.40;67.30
31677;DHT22;18385;51.572;6.578;2023-07-16T03:42:06;20.40;67.30
31677;DHT22;18385;51.572;6.578;2023-07-16T03:44:32;20.40;67.40
31677;DHT22;18385;51.572;6.578;2023-07-16T03:47:00;20.30;67.30
31677;DHT22;18385;51.572;6.578;2023-07-16T03:49:26;20.30;67.40
31677;DHT22;18385;51.572;6.578;2023-07-16T03:51:51;20.30;67.40
31677;DHT22;18385;51.572;6.578;2023-07-16T03:54:17;20.30;67.40
31677;DHT22;18385;51.572;6.578;2023-07-16T03:56:43;20.30;67.30
31677;DHT22;18385;51.572;6.578;2023-07-16T03:59:08;20.20;67.30
31677;DHT22;18385;51.572;6.578;2023-07-16T04:01:34;20.20;67.30
31677;DHT22;18385;51.572;6.578;2023-07-16T04:04:00;20.20;67.40
31677;DHT22;18385;51.572;6.578;2023-07-16T04:06:26;20.10;67.30
31677;DHT22;18385;51.572;6.578;2023-07-16T04:08:52;20.10;67.30
31677;DHT22;18385;51.572;6.578;2023-07-16T04:11:17;20.10;67.20
31677;DHT22;18385;51.572;6.578;2023-07-16T04:13:43;20.10;67.30
31677;DHT22;18385;51.572;6.578;2023-07-16T04:16:09;20.10;67.20
31677;DHT22;18385;51.572;6.578;2023-07-16T04:18:34;20.00;67.20
31677;DHT22;18385;51.572;6.578;2023-07-16T04:21:00;20.00;67.20
31677;DHT22;18385;51.572;6.578;2023-07-16T04:23:25;20.00;67.20
31677;DHT22;18385;51.572;6.578;2023-07-16T04:25:52;20.00;67.10
31677;DHT22;18385;51.572;6.578;2023-07-16T04:28:18;20.10;67.10
31677;DHT22;18385;51.572;6.578;2023-07-16T04:30:44;20.10;67.00
31677;DHT22;18385;51.572;6.578;2023-07-16T04:33:10;20.00;67.00
31677;DHT22;18385;51.572;6.578;2023-07-16T04:35:36;20.00;66.90
31677;DHT22;18385;51.572;6.578;2023-07-16T04:38:02;20.00;66.80
31677;DHT22;18385;51.572;6.578;2023-07-16T04:40:29;20.00;66.70
31677;DHT22;18385;51.572;6.578;2023-07-16T04:42:55;20.00;66.60
31677;DHT22;18385;51.572;6.578;2023-07-16T04:45:21;20.00;66.60
31677;DHT22;18385;51.572;6.578;2023-07-16T04:47:46;19.90;66.50
31677;DHT22;18385;51.572;6.578;2023-07-16T04:50:12;19.90;66.60
31677;DHT22;18385;51.572;6.578;2023-07-16T04:52:38;20.00;66.60
31677;DHT22;18385;51.572;6.578;2023-07-16T04:55:04;20.00;66.50
31677;DHT22;18385;51.572;6.578;2023-07-16T04:57:30;20.00;66.40
31677;DHT22;18385;51.572;6.578;2023-07-16T04:59:55;20.00;66.40
31677;DHT22;18385;51.572;6.578;2023-07-16T05:02:21;20.00;66.30
31677;DHT22;18385;51.572;6.578;2023-07-16T05:04:46;20.00;66.20
31677;DHT22;18385;51.572;6.578;2023-07-16T05:07:15;20.10;66.20
31677;DHT22;18385;51.572;6.578;2023-07-16T05:09:42;20.10;66.20
31677;DHT22;18385;51.572;6.578;2023-07-16T05:12:08;20.10;66.10
31677;DHT22;18385;51.572;6.578;2023-07-16T05:14:48;20.10;65.90
31677;DHT22;18385;51.572;6.578;2023-07-16T05:17:14;20.10;65.70
31677;DHT22;18385;51.572;6.578;2023-07-16T05:19:40;20.20;65.80
31677;DHT22;18385;51.572;6.578;2023-07-16T05:22:06;20.20;65.60
31677;DHT22;18385;51.572;6.578;2023-07-16T05:24:32;20.20;65.50
31677;DHT22;18385;51.572;6.578;2023-07-16T05:26:58;20.20;65.40
31677;DHT22;18385;51.572;6.578;2023-07-16T05:29:24;20.30;65.30
31677;DHT22;18385;51.572;6.578;2023-07-16T05:31:50;20.30;65.30
31677;DHT22;18385;51.572;6.578;2023-07-16T05:34:15;20.30;65.10
31677;DHT22;18385;51.572;6.578;2023-07-16T05:36:42;20.30;65.10
31677;DHT22;18385;51.572;6.578;2023-07-16T05:39:07;20.40;65.10
31677;DHT22;18385;51.572;6.578;2023-07-16T05:41:34;20.40;65.00
31677;DHT22;18385;51.572;6.578;2023-07-16T05:44:00;20.40;64.90
31677;DHT22;18385;51.572;6.578;2023-07-16T05:46:25;20.40;64.80
31677;DHT22;18385;51.572;6.578;2023-07-16T05:48:51;20.50;64.80
31677;DHT22;18385;51.572;6.578;2023-07-16T05:51:17;20.50;64.60
31677;DHT22;18385;51.572;6.578;2023-07-16T05:53:43;20.60;64.50
31677;DHT22;18385;51.572;6.578;2023-07-16T05:56:08;20.60;64.40
31677;DHT22;18385;51.572;6.578;2023-07-16T05:58:34;20.60;64.30
31677;DHT22;18385;51.572;6.578;2023-07-16T06:01:00;20.60;64.20
31677;DHT22;18385;51.572;6.578;2023-07-16T06:03:25;20.70;64.10
31677;DHT22;18385;51.572;6.578;2023-07-16T06:05:51;20.70;64.00
31677;DHT22;18385;51.572;6.578;2023-07-16T06:08:16;20.80;64.00
31677;DHT22;18385;51.572;6.578;2023-07-16T06:10:42;20.80;63.80
31677;DHT22;18385;51.572;6.578;2023-07-16T06:13:08;20.80;63.60
31677;DHT22;18385;51.572;6.578;2023-07-16T06:15:33;20.90;63.30
31677;DHT22;18385;51.572;6.578;2023-07-16T06:17:59;20.90;63.20
31677;DHT22;18385;51.572;6.578;2023-07-16T06:20:24;20.90;63.00
31677;DHT22;18385;51.572;6.578;2023-07-16T06:22:50;20.90;62.80
31677;DHT22;18385;51.572;6.578;2023-07-16T06:25:16;20.80;63.00
31677;DHT22;18385;51.572;6.578;2023-07-16T06:27:41;20.70;63.10
31677;DHT22;18385;51.572;6.578;2023-07-16T06:30:07;20.70;63.10
31677;DHT22;18385;51.572;6.578;2023-07-16T06:32:33;20.70;63.10
31677;DHT22;18385;51.572;6.578;2023-07-16T06:34:58;20.70;63.00
31677;DHT22;18385;51.572;6.578;2023-07-16T06:37:24;20.70;62.90
31677;DHT22;18385;51.572;6.578;2023-07-16T06:39:51;20.80;62.80
31677;DHT22;18385;51.572;6.578;2023-07-16T06:42:16;20.80;62.50
31677;DHT22;18385;51.572;6.578;2023-07-16T06:44:42;20.90;62.40
31677;DHT22;18385;51.572;6.578;2023-07-16T06:47:08;21.00;62.20
31677;DHT22;18385;51.572;6.578;2023-07-16T06:49:33;21.00;62.00
31677;DHT22;18385;51.572;6.578;2023-07-16T06:52:17;21.00;61.70
31677;DHT22;18385;51.572;6.578;2023-07-16T06:54:43;21.00;61.70
31677;DHT22;18385;51.572;6.578;2023-07-16T06:57:09;21.00;61.80
31677;DHT22;18385;51.572;6.578;2023-07-16T06:59:35;21.10;61.70
31677;DHT22;18385;51.572;6.578;2023-07-16T07:02:00;21.20;61.30
31677;DHT22;18385;51.572;6.578;2023-07-16T07:04:27;21.20;61.10
31677;DHT22;18385;51.572;6.578;2023-07-16T07:06:53;21.30;60.90
31677;DHT22;18385;51.572;6.578;2023-07-16T07:09:19;21.40;60.50
31677;DHT22;18385;51.572;6.578;2023-07-16T07:11:44;21.50;60.50
31677;DHT22;18385;51.572;6.578;2023-07-16T07:14:10;21.50;60.20
31677;DHT22;18385;51.572;6.578;2023-07-16T07:16:35;21.60;60.00
31677;DHT22;18385;51.572;6.578;2023-07-16T07:19:01;21.60;60.00
31677;DHT22;18385;51.572;6.578;2023-07-16T07:21:27;21.70;59.90
31677;DHT22;18385;51.572;6.578;2023-07-16T07:23:53;21.80;59.50
31677;DHT22;18385;51.572;6.578;2023-07-16T07:26:19;21.90;59.50
31677;DHT22;18385;51.572;6.578;2023-07-16T07:28:44;21.90;59.30
31677;DHT22;18385;51.572;6.578;2023-07-16T07:31:10;22.00;59.20
31677;DHT22;18385;51.572;6.578;2023-07-16T07:33:36;22.20;59.20
31677;DHT22;18385;51.572;6.578;2023-07-16T07:36:01;22.30;58.80
31677;DHT22;18385;51.572;6.578;2023-07-16T07:38:27;22.40;58.50
31677;DHT22;18385;51.572;6.578;2023-07-16T07:40:54;22.40;58.30
31677;DHT22;18385;51.572;6.578;2023-07-16T07:43:19;22.40;58.10
31677;DHT22;18385;51.572;6.578;2023-07-16T07:45:45;22.30;57.90
31677;DHT22;18385;51.572;6.578;2023-07-16T07:48:11;22.30;57.90
31677;DHT22;18385;51.572;6.578;2023-07-16T07:50:36;22.40;57.90
31677;DHT22;18385;51.572;6.578;2023-07-16T07:53:02;22.40;57.80
31677;DHT22;18385;51.572;6.578;2023-07-16T07:55:27;22.40;57.50
31677;DHT22;18385;51.572;6.578;2023-07-16T07:57:53;22.30;57.50
31677;DHT22;18385;51.572;6.578;2023-07-16T08:00:19;22.40;57.50
31677;DHT22;18385;51.572;6.578;2023-07-16T08:02:45;22.40;57.30
31677;DHT22;18385;51.572;6.578;2023-07-16T08:05:11;22.40;57.20
31677;DHT22;18385;51.572;6.578;2023-07-16T08:07:36;22.50;57.00
31677;DHT22;18385;51.572;6.578;2023-07-16T08:10:02;22.60;57.00
31677;DHT22;18385;51.572;6.578;2023-07-16T08:12:28;22.70;56.80
31677;DHT22;18385;51.572;6.578;2023-07-16T08:14:55;22.70;56.70
31677;DHT22;18385;51.572;6.578;2023-07-16T08:17:21;22.80;56.60
31677;DHT22;18385;51.572;6.578;2023-07-16T08:19:46;22.90;56.50
31677;DHT22;18385;51.572;6.578;2023-07-16T08:22:12;22.90;56.20
31677;DHT22;18385;51.572;6.578;2023-07-16T08:24:37;23.00;55.90
31677;DHT22;18385;51.572;6.578;2023-07-16T08:27:03;23.00;55.90
31677;DHT22;18385;51.572;6.578;2023-07-16T08:29:29;23.00;55.70
31677;DHT22;18385;51.572;6.578;2023-07-16T08:31:55;23.00;55.60
31677;DHT22;18385;51.572;6.578;2023-07-16T08:34:20;22.90;55.50
31677;DHT22;18385;51.572;6.578;2023-07-16T08:36:46;23.00;55.60
31677;DHT22;18385;51.572;6.578;2023-07-16T08:39:12;23.10;55.60
31677;DHT22;18385;51.572;6.578;2023-07-16T08:41:38;23.20;55.20
31677;DHT22;18385;51.572;6.578;2023-07-16T08:44:04;23.30;55.80
31677;DHT22;18385;51.572;6.578;2023-07-16T08:46:30;23.60;55.20
31677;DHT22;18385;51.572;6.578;2023-07-16T08:48:59;23.70;54.70
31677;DHT22;18385;51.572;6.578;2023-07-16T08:51:25;23.70;54.20
31677;DHT22;18385;51.572;6.578;2023-07-16T08:53:52;23.70;55.00
31677;DHT22;18385;51.572;6.578;2023-07-16T08:56:17;23.90;54.30
31677;DHT22;18385;51.572;6.578;2023-07-16T08:58:44;24.00;53.90
31677;DHT22;18385;51.572;6.578;2023-07-16T09:01:12;24.00;53.60
31677;DHT22;18385;51.572;6.578;2023-07-16T09:03:39;24.00;53.70
31677;DHT22;18385;51.572;6.578;2023-07-16T09:06:04;24.00;53.10
31677;DHT22;18385;51.572;6.578;2023-07-16T09:08:30;24.00;53.80
31677;DHT22;18385;51.572;6.578;2023-07-16T09:10:57;24.10;53.20
31677;DHT22;18385;51.572;6.578;2023-07-16T09:13:24;24.10;53.10
31677;DHT22;18385;51.572;6.578;2023-07-16T09:15:58;24.10;52.60
31677;DHT22;18385;51.572;6.578;2023-07-16T09:18:25;24.10;52.40
31677;DHT22;18385;51.572;6.578;2023-07-16T09:20:58;24.20;52.60
31677;DHT22;18385;51.572;6.578;2023-07-16T09:23:26;24.30;52.20
31677;DHT22;18385;51.572;6.578;2023-07-16T09:25:53;24.20;52.00
31677;DHT22;18385;51.572;6.578;2023-07-16T09:28:20;24.20;51.80
31677;DHT22;18385;51.572;6.578;2023-07-16T09:30:47;24.20;51.80
31677;DHT22;18385;51.572;6.578;2023-07-16T09:33:14;24.30;51.90
31677;DHT22;18385;51.572;6.578;2023-07-16T09:35:41;24.50;51.90
31677;DHT22;18385;51.572;6.578;2023-07-16T09:38:08;24.70;51.40
31677;DHT22;18385;51.572;6.578;2023-07-16T09:40:36;24.80;51.10
31677;DHT22;18385;51.572;6.578;2023-07-16T09:43:03;24.80;50.70
31677;DHT22;18385;51.572;6.578;2023-07-16T09:45:29;24.70;50.50
31677;DHT22;18385;51.572;6.578;2023-07-16T09:47:54;24.60;50.70
31677;DHT22;18385;51.572;6.578;2023-07-16T09:50:23;24.70;50.70
31677;DHT22;18385;51.572;6.578;2023-07-16T09:52:51;24.80;50.60
31677;DHT22;18385;51.572;6.578;2023-07-16T09:55:18;24.90;50.40
31677;DHT22;18385;51.572;6.578;2023-07-16T09:57:47;25.00;50.00
31677;DHT22;18385;51.572;6.578;2023-07-16T10:00:15;25.10;49.90
31677;DHT22;18385;51.572;6.578;2023-07-16T10:02:42;25.40;49.70
31677;DHT22;18385;51.572;6.578;2023-07-16T10:05:14;25.40;49.20
31677;DHT22;18385;51.572;6.578;2023-07-16T10:07:40;25.40;48.90
31677;DHT22;18385;51.572;6.578;2023-07-16T10:10:10;25.60;49.10
31677;DHT22;18385;51.572;6.578;2023-07-16T10:12:37;25.70;48.60
31677;DHT22;18385;51.572;6.578;2023-07-16T10:15:05;25.90;48.50
31677;DHT22;18385;51.572;6.578;2023-07-16T10:17:32;25.90;48.30
31677;DHT22;18385;51.572;6.578;2023-07-16T10:20:08;26.10;48.10
31677;DHT22;18385;51.572;6.578;2023-07-16T10:22:45;26.20;47.80
31677;DHT22;18385;51.572;6.578;2023-07-16T10:27:44;26.50;47.50
31677;DHT22;18385;51.572;6.578;2023-07-16T10:30:10;26.60;47.10
31677;DHT22;18385;51.572;6.578;2023-07-16T10:32:36;26.50;46.90
31677;DHT22;18385;51.572;6.578;2023-07-16T10:35:04;26.50;46.70
31677;DHT22;18385;51.572;6.578;2023-07-16T10:37:30;26.40;46.50
31677;DHT22;18385;51.572;6.578;2023-07-16T10:39:57;26.50;46.60
31677;DHT22;18385;51.572;6.578;2023-07-16T10:42:24;26.50;46.50
31677;DHT22;18385;51.572;6.578;2023-07-16T10:44:57;26.60;46.30
31677;DHT22;18385;51.572;6.578;2023-07-16T10:47:31;26.50;45.90
31677;DHT22;18385;51.572;6.578;2023-07-16T10:49:57;26.50;45.90
31677;DHT22;18385;51.572;6.578;2023-07-16T10:52:23;26.50;45.70
31677;DHT22;18385;51.572;6.578;2023-07-16T10:54:50;26.40;45.90
31677;DHT22;18385;51.572;6.578;2023-07-16T10:57:17;26.50;46.20
31677;DHT22;18385;51.572;6.578;2023-07-16T10:59:45;26.70;45.70
31677;DHT22;18385;51.572;6.578;2023-07-16T11:02:13;26.90;45.50
31677;DHT22;18385;51.572;6.578;2023-07-16T11:04:39;26.90;44.80
31677;DHT22;18385;51.572;6.578;2023-07-16T11:07:07;26.90;44.80
31677;DHT22;18385;51.572;6.578;2023-07-16T11:09:34;26.80;44.80
31677;DHT22;18385;51.572;6.578;2023-07-16T11:12:11;26.70;45.10
31677;DHT22;18385;51.572;6.578;2023-07-16T11:14:38;26.70;44.80
31677;DHT22;18385;51.572;6.578;2023-07-16T11:17:05;26.80;44.90
31677;DHT22;18385;51.572;6.578;2023-07-16T11:19:32;26.80;44.50
31677;DHT22;18385;51.572;6.578;2023-07-16T11:22:01;26.90;44.90
31677;DHT22;18385;51.572;6.578;2023-07-16T11:24:27;27.00;44.80
31677;DHT22;18385;51.572;6.578;2023-07-16T11:26:54;27.20;44.40
31677;DHT22;18385;51.572;6.578;2023-07-16T11:29:23;27.30;44.10
31677;DHT22;18385;51.572;6.578;2023-07-16T11:31:51;27.40;44.20
31677;DHT22;18385;51.572;6.578;2023-07-16T11:34:16;27.50;43.90
31677;DHT22;18385;51.572;6.578;2023-07-16T11:36:42;27.60;43.50
31677;DHT22;18385;51.572;6.578;2023-07-16T11:39:11;27.70;43.60
31677;DHT22;18385;51.572;6.578;2023-07-16T11:41:37;27.90;43.50
31677;DHT22;18385;51.572;6.578;2023-07-16T11:44:03;27.90;42.90
31677;DHT22;18385;51.572;6.578;2023-07-16T11:46:33;27.80;42.90
31677;DHT22;18385;51.572;6.578;2023-07-16T11:49:00;27.70;42.30
31677;DHT22;18385;51.572;6.578;2023-07-16T11:51:25;27.70;42.80
31677;DHT22;18385;51.572;6.578;2023-07-16T11:53:51;28.00;43.00
31677;DHT22;18385;51.572;6.578;2023-07-16T11:56:17;28.20;42.60
31677;DHT22;18385;51.572;6.578;2023-07-16T11:58:43;28.30;42.10
31677;DHT22;18385;51.572;6.578;2023-07-16T12:01:09;28.30;41.90
31677;DHT22;18385;51.572;6.578;2023-07-16T12:03:35;28.50;41.80
31677;DHT22;18385;51.572;6.578;2023-07-16T12:06:00;28.60;41.40
31677;DHT22;18385;51.572;6.578;2023-07-16T12:08:26;28.80;41.40
31677;DHT22;18385;51.572;6.578;2023-07-16T12:10:52;29.10;41.20
31677;DHT22;18385;51.572;6.578;2023-07-16T12:13:18;29.20;40.60
31677;DHT22;18385;51.572;6.578;2023-07-16T12:15:43;29.10;40.00
31677;DHT22;18385;51.572;6.578;2023-07-16T12:18:09;28.80;39.60
31677;DHT22;18385;51.572;6.578;2023-07-16T12:20:35;28.60;40.00
31677;DHT22;18385;51.572;6.578;2023-07-16T12:23:02;28.50;40.10
31677;DHT22;18385;51.572;6.578;2023-07-16T12:25:28;28.50;39.90
31677;DHT22;18385;51.572;6.578;2023-07-16T12:27:54;28.60;40.20
31677;DHT22;18385;51.572;6.578;2023-07-16T12:30:20;28.90;40.20
31677;DHT22;18385;51.572;6.578;2023-07-16T12:32:45;29.10;39.60
31677;DHT22;18385;51.572;6.578;2023-07-16T12:35:11;29.20;39.20
31677;DHT22;18385;51.572;6.578;2023-07-16T12:37:37;29.30;39.20
31677;DHT22;18385;51.572;6.578;2023-07-16T12:40:03;29.40;39.00
31677;DHT22;18385;51.572;6.578;2023-07-16T12:42:28;29.40;38.80
31677;DHT22;18385;51.572;6.578;2023-07-16T12:44:54;29.40;38.80
31677;DHT22;18385;51.572;6.578;2023-07-16T12:47:20;29.60;38.80
31677;DHT22;18385;51.572;6.578;2023-07-16T12:49:45;29.90;38.40
31677;DHT22;18385;51.572;6.578;2023-07-16T12:52:11;29.90;37.90
31677;DHT22;18385;51.572;6.578;2023-07-16T12:54:37;29.80;37.70
31677;DHT22;18385;51.572;6.578;2023-07-16T12:57:03;29.70;37.70
31677;DHT22;18385;51.572;6.578;2023-07-16T12:59:28;29.60;37.60
31677;DHT22;18385;51.572;6.578;2023-07-16T13:01:54;29.50;37.60
31677;DHT22;18385;51.572;6.578;2023-07-16T13:04:19;29.50;37.80
31677;DHT22;18385;51.572;6.578;2023-07-16T13:06:45;29.80;37.80
31677;DHT22;18385;51.572;6.578;2023-07-16T13:09:13;29.80;37.10
31677;DHT22;18385;51.572;6.578;2023-07-16T13:11:41;29.90;37.20
31677;DHT22;18385;51.572;6.578;2023-07-16T13:14:06;29.90;36.90
31677;DHT22;18385;51.572;6.578;2023-07-16T13:16:32;30.00;37.00
31677;DHT22;18385;51.572;6.578;2023-07-16T13:18:58;30.20;37.00
31677;DHT22;18385;51.572;6.578;2023-07-16T13:21:23;30.50;36.90
31677;DHT22;18385;51.572;6.578;2023-07-16T13:23:49;30.50;35.80
31677;DHT22;18385;51.572;6.578;2023-07-16T13:26:15;30.60;36.10
31677;DHT22;18385;51.572;6.578;2023-07-16T13:28:43;30.70;35.70
31677;DHT22;18385;51.572;6.578;2023-07-16T13:31:09;30.60;35.20
31677;DHT22;18385;51.572;6.578;2023-07-16T13:33:34;30.60;35.40
31677;DHT22;18385;51.572;6.578;2023-07-16T13:36:01;31.00;36.20
31677;DHT22;18385;51.572;6.578;2023-07-16T13:38:30;31.60;36.00
31677;DHT22;18385;51.572;6.578;2023-07-16T13:40:56;32.00;34.80
31677;DHT22;18385;51.572;6.578;2023-07-16T13:43:22;32.20;35.30
31677;DHT22;18385;51.572;6.578;2023-07-16T13:45:47;32.60;34.30
31677;DHT22;18385;51.572;6.578;2023-07-16T13:48:13;32.90;33.70
31677;DHT22;18385;51.572;6.578;2023-07-16T13:50:39;33.10;33.00
31677;DHT22;18385;51.572;6.578;2023-07-16T13:53:04;33.20;32.90
31677;DHT22;18385;51.572;6.578;2023-07-16T13:55:30;33.40;32.30
31677;DHT22;18385;51.572;6.578;2023-07-16T13:57:56;32.90;31.00
31677;DHT22;18385;51.572;6.578;2023-07-16T14:00:22;32.70;32.10
31677;DHT22;18385;51.572;6.578;2023-07-16T14:02:48;33.10;32.10
31677;DHT22;18385;51.572;6.578;2023-07-16T14:05:13;33.10;30.90
31677;DHT22;18385;51.572;6.578;2023-07-16T14:07:39;33.30;31.60
31677;DHT22;18385;51.572;6.578;2023-07-16T14:10:05;33.60;30.90
31677;DHT22;18385;51.572;6.578;2023-07-16T14:12:31;33.80;31.00
31677;DHT22;18385;51.572;6.578;2023-07-16T14:14:57;33.70;30.70
31677;DHT22;18385;51.572;6.578;2023-07-16T14:17:22;33.80;30.00
31677;DHT22;18385;51.572;6.578;2023-07-16T14:19:49;33.40;29.60
31677;DHT22;18385;51.572;6.578;2023-07-16T14:22:15;32.60;29.60
31677;DHT22;18385;51.572;6.578;2023-07-16T14:24:41;32.20;30.30
31677;DHT22;18385;51.572;6.578;2023-07-16T14:27:07;32.00;30.40
31677;DHT22;18385;51.572;6.578;2023-07-16T14:29:34;31.80;30.60
31677;DHT22;18385;51.572;6.578;2023-07-16T14:32:00;31.70;30.90
31677;DHT22;18385;51.572;6.578;2023-07-16T14:34:27;32.20;31.80
31677;DHT22;18385;51.572;6.578;2023-07-16T14:36:53;33.40;30.90
31677;DHT22;18385;51.572;6.578;2023-07-16T14:39:19;33.10;29.30
31677;DHT22;18385;51.572;6.578;2023-07-16T14:41:45;32.30;29.40
31677;DHT22;18385;51.572;6.578;2023-07-16T14:44:11;33.00;30.70
31677;DHT22;18385;51.572;6.578;2023-07-16T14:46:36;33.30;29.80
31677;DHT22;18385;51.572;6.578;2023-07-16T14:49:03;33.90;30.00
31677;DHT22;18385;51.572;6.578;2023-07-16T14:51:29;34.20;29.30
31677;DHT22;18385;51.572;6.578;2023-07-16T14:53:56;34.70;29.30
31677;DHT22;18385;51.572;6.578;2023-07-16T14:56:21;35.10;28.90
31677;DHT22;18385;51.572;6.578;2023-07-16T14:58:47;34.30;27.90
31677;DHT22;18385;51.572;6.578;2023-07-16T15:01:13;33.20;28.20
31677;DHT22;18385;51.572;6.578;2023-07-16T15:03:39;32.90;29.20
31677;DHT22;18385;51.572;6.578;2023-07-16T15:06:08;32.80;29.00
31677;DHT22;18385;51.572;6.578;2023-07-16T15:08:35;33.00;29.50
31677;DHT22;18385;51.572;6.578;2023-07-16T15:11:01;34.40;29.60
31677;DHT22;18385;51.572;6.578;2023-07-16T15:13:26;34.50;27.70
31677;DHT22;18385;51.572;6.578;2023-07-16T15:15:54;33.40;27.60
31677;DHT22;18385;51.572;6.578;2023-07-16T15:18:22;32.60;28.20
31677;DHT22;18385;51.572;6.578;2023-07-16T15:20:48;31.90;28.70
31677;DHT22;18385;51.572;6.578;2023-07-16T15:23:14;32.00;29.40
31677;DHT22;18385;51.572;6.578;2023-07-16T15:25:43;32.20;29.30
31677;DHT22;18385;51.572;6.578;2023-07-16T15:28:11;32.70;29.20
31677;DHT22;18385;51.572;6.578;2023-07-16T15:30:37;33.50;29.70
31677;DHT22;18385;51.572;6.578;2023-07-16T15:33:03;33.90;28.60
31677;DHT22;18385;51.572;6.578;2023-07-16T15:35:28;33.30;27.90
31677;DHT22;18385;51.572;6.578;2023-07-16T15:37:54;32.60;28.10